Time;durP1;ratioP1;P1;durP2;ratioP2;P2;SDS_P1;SDS_P2;PMS_P1;PMS_P2;Temp;Humidity;BMP_temperature;BMP_pressure;BME280_temperature;BME280_humidity;BME280_pressure;Samples;Min_cycle;Max_cycle;Signal;HPM_P1;HPM_P2
2023/10/07 00:01:24;;;;;;;5.20;2.25;;;26.00;43.90;;;;;;4933666;29;20071;-75
2023/10/07 00:03:53;;;;;;;6.65;2.78;;;25.90;43.50;;;;;;4914341;29;20140;-75
2023/10/07 00:06:25;;;;;;;4.30;2.70;;;25.90;43.50;;;;;;4914155;29;20044;-75
2023/10/07 00:08:51;;;;;;;7.18;2.70;;;26.00;44.00;;;;;;4898275;29;20052;-75
2023/10/07 00:11:17;;;;;;;11.55;2.45;;;26.00;44.00;;;;;;4913729;29;20095;-76
2023/10/07 00:13:43;;;;;;;5.82;2.40;;;25.80;43.60;;;;;;4899915;29;20055;-76
2023/10/07 00:16:11;;;;;;;3.08;2.30;;;26.00;44.00;;;;;;4932999;29;20043;-75
2023/10/07 00:18:38;;;;;;;3.97;2.00;;;26.00;44.00;;;;;;4933129;29;20039;-75
2023/10/07 00:21:04;;;;;;;7.00;2.90;;;25.90;43.60;;;;;;4913151;29;20053;-75
2023/10/07 00:23:34;;;;;;;8.88;3.78;;;26.00;44.00;;;;;;4913844;29;20098;-76
2023/10/07 00:26:01;;;;;;;6.70;2.72;;;26.10;44.10;;;;;;4913759;29;20044;-76
2023/10/07 00:28:34;;;;;;;7.20;2.13;;;25.90;43.60;;;;;;4913768;29;20505;-76
2023/10/07 00:31:06;;;;;;;6.88;2.60;;;26.00;44.10;;;;;;4913506;29;20420;-75
2023/10/07 00:33:46;;;;;;;3.65;1.67;;;26.00;44.00;;;;;;4913905;29;20095;-75
2023/10/07 00:36:15;;;;;;;5.20;1.73;;;25.90;43.60;;;;;;4913233;29;20687;-75
2023/10/07 00:38:44;;;;;;;5.30;2.33;;;26.00;44.00;;;;;;4898092;29;20495;-76
2023/10/07 00:41:11;;;;;;;4.05;2.28;;;25.80;43.60;;;;;;4921982;29;20377;-75
2023/10/07 00:43:37;;;;;;;5.30;2.20;;;25.80;43.70;;;;;;4932965;29;20059;-75
2023/10/07 00:46:28;;;;;;;9.05;2.65;;;25.90;43.70;;;;;;4916763;29;20134;-75
2023/10/07 00:48:56;;;;;;;10.02;2.60;;;26.00;44.10;;;;;;4917172;29;20047;-76
2023/10/07 00:51:35;;;;;;;4.93;1.98;;;25.90;43.70;;;;;;4933430;29;20101;-75
2023/10/07 00:56:53;;;;;;;6.88;2.00;;;25.90;43.70;;;;;;4934281;29;20044;-75
2023/10/07 00:59:20;;;;;;;9.68;2.60;;;25.90;43.80;;;;;;4934745;29;20032;-75
2023/10/07 01:01:50;;;;;;;6.38;2.33;;;25.90;43.90;;;;;;4933795;29;20036;-75
2023/10/07 01:04:16;;;;;;;10.85;2.42;;;25.90;43.90;;;;;;4933637;29;20067;-75
2023/10/07 01:06:45;;;;;;;8.25;2.40;;;25.90;43.90;;;;;;4933509;29;20043;-75
2023/10/07 01:09:14;;;;;;;6.80;1.98;;;25.80;43.90;;;;;;4933333;29;20059;-75
2023/10/07 01:11:44;;;;;;;5.50;2.10;;;25.80;44.00;;;;;;4933384;29;20046;-75
2023/10/07 01:14:12;;;;;;;5.25;2.30;;;25.80;43.90;;;;;;4934502;29;20043;-75
2023/10/07 01:16:45;;;;;;;4.47;1.90;;;25.70;44.00;;;;;;4932664;29;20457;-75
2023/10/07 01:21:55;;;;;;;4.78;1.95;;;26.00;44.50;;;;;;4933517;29;20079;-75
2023/10/07 01:30:13;;;;;;;4.55;2.00;;;25.90;44.00;;;;;;4875824;29;20498;-76
2023/10/07 01:32:49;;;;;;;2.90;1.95;;;25.80;44.00;;;;;;4846257;29;20396;-75
2023/10/07 01:35:25;;;;;;;6.18;2.42;;;26.00;44.50;;;;;;4856848;29;20475;-76
2023/10/07 01:38:07;;;;;;;6.60;2.30;;;25.90;44.00;;;;;;4856596;29;20125;-75
2023/10/07 01:43:19;;;;;;;5.40;2.60;;;25.90;43.90;;;;;;4856704;29;20076;-75
2023/10/07 01:45:48;;;;;;;8.30;2.17;;;25.90;44.00;;;;;;4856623;29;20057;-75
2023/10/07 01:48:17;;;;;;;2.53;2.00;;;25.80;44.00;;;;;;4840864;29;20226;-75
2023/10/07 01:50:44;;;;;;;4.53;2.03;;;25.80;44.10;;;;;;4856540;29;20515;-74
2023/10/07 01:53:11;;;;;;;5.45;2.30;;;25.80;44.10;;;;;;4856340;29;20109;-75
2023/10/07 01:55:42;;;;;;;5.40;2.70;;;25.90;44.00;;;;;;4842894;29;20057;-75
2023/10/07 01:58:13;;;;;;;7.20;2.53;;;25.90;44.10;;;;;;4837746;29;20089;-75
2023/10/07 02:00:44;;;;;;;6.50;2.70;;;25.80;44.10;;;;;;4838360;29;20050;-75
2023/10/07 02:03:16;;;;;;;3.70;2.00;;;25.80;44.10;;;;;;4829916;29;20900;-75
2023/10/07 02:05:49;;;;;;;3.33;2.28;;;25.70;44.20;;;;;;4896930;29;20405;-75
2023/10/07 02:08:22;;;;;;;6.28;2.65;;;25.70;44.20;;;;;;4856451;29;20050;-75
2023/10/07 02:10:50;;;;;;;4.27;2.33;;;25.80;44.20;;;;;;4875262;29;20469;-76
2023/10/07 02:13:19;;;;;;;4.55;2.40;;;25.80;44.20;;;;;;4893527;29;20073;-75
2023/10/07 02:15:48;;;;;;;4.18;2.67;;;25.70;44.20;;;;;;4879329;29;20052;-76
2023/10/07 02:18:18;;;;;;;4.18;2.35;;;25.70;44.30;;;;;;4877781;29;20091;-75
2023/10/07 02:20:53;;;;;;;4.20;2.15;;;25.80;44.30;;;;;;4880208;29;20047;-75
2023/10/07 02:23:37;;;;;;;3.92;1.90;;;25.90;44.30;;;;;;4881657;29;20055;-75
2023/10/07 02:26:14;;;;;;;5.22;2.03;;;25.80;44.30;;;;;;4881167;29;20045;-75
2023/10/07 02:28:42;;;;;;;3.30;2.45;;;25.90;44.30;;;;;;4881525;29;20105;-75
2023/10/07 02:31:08;;;;;;;6.03;1.83;;;25.80;44.30;;;;;;4881077;29;20119;-75
2023/10/07 02:33:51;;;;;;;4.40;2.08;;;25.90;44.30;;;;;;4897001;29;20350;-75
2023/10/07 02:36:29;;;;;;;6.88;2.42;;;25.80;44.30;;;;;;4897051;29;20044;-76
2023/10/07 02:39:02;;;;;;;3.40;2.05;;;25.80;44.30;;;;;;4904444;29;20056;-75
2023/10/07 02:41:31;;;;;;;3.87;2.30;;;25.80;44.30;;;;;;4936768;29;20028;-75
2023/10/07 02:44:10;;;;;;;5.22;2.13;;;25.80;44.30;;;;;;4935925;29;20118;-75
2023/10/07 02:46:36;;;;;;;5.03;2.65;;;25.80;44.30;;;;;;4936323;29;20042;-75
2023/10/07 02:49:06;;;;;;;3.90;2.00;;;25.70;44.30;;;;;;4936728;29;20032;-75
2023/10/07 02:51:34;;;;;;;5.68;2.35;;;25.90;44.30;;;;;;4935867;29;20032;-75
2023/10/07 02:54:21;;;;;;;5.22;2.35;;;25.90;44.30;;;;;;4935561;29;20036;-75
2023/10/07 02:59:36;;;;;;;9.05;2.80;;;25.80;44.40;;;;;;4935115;29;20035;-75
2023/10/07 03:07:41;;;;;;;8.32;3.05;;;25.60;44.60;;;;;;4936042;29;20036;-76
2023/10/07 03:10:32;;;;;;;6.95;2.50;;;25.60;44.60;;;;;;4935309;29;20047;-75
2023/10/07 03:12:59;;;;;;;12.98;3.20;;;25.70;44.60;;;;;;4935729;29;20047;-75
2023/10/07 03:18:03;;;;;;;10.02;3.75;;;25.70;44.60;;;;;;4935424;29;20051;-76
2023/10/07 03:20:30;;;;;;;4.43;3.00;;;25.80;44.60;;;;;;4936744;29;20027;-71
2023/10/07 03:23:25;;;;;;;6.00;3.28;;;25.70;44.70;;;;;;4935686;29;20114;-73
2023/10/07 03:28:24;;;;;;;8.95;3.17;;;25.70;44.80;;;;;;4936553;29;20035;-73
2023/10/07 03:30:55;;;;;;;5.30;2.80;;;25.70;44.80;;;;;;4934699;29;20036;-72
2023/10/07 03:33:32;;;;;;;6.65;2.92;;;25.70;44.70;;;;;;4937084;29;20070;-72
2023/10/07 03:38:28;;;;;;;6.32;2.75;;;25.70;44.60;;;;;;4935421;29;20054;-72
2023/10/07 03:40:55;;;;;;;7.32;2.60;;;25.70;44.60;;;;;;4935038;29;20122;-74
2023/10/07 03:43:27;;;;;;;5.75;2.90;;;25.80;44.60;;;;;;4935126;29;20035;-72
2023/10/07 03:45:54;;;;;;;7.63;2.55;;;25.90;44.50;;;;;;4936385;29;20349;-72
2023/10/07 03:48:23;;;;;;;6.80;2.60;;;25.70;44.50;;;;;;4935377;29;20046;-73
2023/10/07 03:50:59;;;;;;;7.45;3.05;;;25.90;44.40;;;;;;4935010;29;20370;-72
2023/10/07 03:53:31;;;;;;;4.03;2.55;;;25.90;44.40;;;;;;4935295;29;20039;-73
2023/10/07 03:56:02;;;;;;;4.32;2.90;;;25.70;44.40;;;;;;4935852;29;20129;-72
2023/10/07 03:58:28;;;;;;;3.30;2.38;;;25.90;44.30;;;;;;4936272;29;20044;-72
2023/10/07 04:01:04;;;;;;;4.57;2.75;;;25.80;44.40;;;;;;4935970;29;20028;-73
2023/10/07 04:03:35;;;;;;;6.13;2.92;;;25.70;44.40;;;;;;4918061;29;20078;-73
2023/10/07 04:06:01;;;;;;;5.18;3.17;;;25.70;44.30;;;;;;4933582;29;20047;-72
2023/10/07 04:08:27;;;;;;;7.25;2.35;;;25.70;44.30;;;;;;4935872;29;20117;-72
2023/10/07 04:10:54;;;;;;;5.15;2.65;;;25.80;44.40;;;;;;4935202;29;20087;-72
2023/10/07 04:13:24;;;;;;;6.05;2.70;;;25.60;44.30;;;;;;4935409;29;20035;-73
2023/10/07 04:15:54;;;;;;;4.38;2.40;;;25.80;44.40;;;;;;4934352;29;20063;-72
2023/10/07 04:18:34;;;;;;;5.40;2.80;;;25.70;44.40;;;;;;4935486;29;20036;-73
2023/10/07 04:21:03;;;;;;;3.65;2.40;;;25.80;44.40;;;;;;4935487;29;20098;-73
2023/10/07 04:23:29;;;;;;;7.32;2.53;;;25.60;44.40;;;;;;4934109;29;20042;-72
2023/10/07 04:25:56;;;;;;;4.45;2.22;;;25.60;44.30;;;;;;4935374;29;20038;-73
2023/10/07 04:28:25;;;;;;;5.60;2.00;;;25.60;44.30;;;;;;4934212;29;20035;-73
2023/10/07 04:30:53;;;;;;;4.20;2.08;;;25.60;44.30;;;;;;4934163;29;20436;-73
2023/10/07 04:33:39;;;;;;;3.33;1.73;;;25.60;44.30;;;;;;4934974;29;20122;-73
2023/10/07 04:36:11;;;;;;;3.80;2.53;;;25.60;44.30;;;;;;4933945;29;20095;-72
2023/10/07 04:38:52;;;;;;;3.85;2.00;;;25.70;44.30;;;;;;4934178;29;20051;-72
2023/10/07 04:44:20;;;;;;;4.32;2.55;;;25.60;44.30;;;;;;4934833;29;20040;-73
2023/10/07 04:46:57;;;;;;;4.90;2.20;;;25.60;44.30;;;;;;4935248;29;20425;-72
2023/10/07 04:49:36;;;;;;;5.35;2.22;;;25.60;44.30;;;;;;4935087;29;20031;-73
2023/10/07 04:52:05;;;;;;;10.20;2.97;;;25.60;44.20;;;;;;4934688;29;20031;-72
2023/10/07 04:54:35;;;;;;;4.65;2.47;;;25.60;44.10;;;;;;4934536;29;20226;-73
2023/10/07 04:57:09;;;;;;;4.25;2.20;;;25.60;44.10;;;;;;4934879;29;20074;-74
2023/10/07 04:59:44;;;;;;;6.57;2.05;;;25.70;44.10;;;;;;4934668;29;20180;-73
2023/10/07 05:02:10;;;;;;;4.03;2.00;;;25.70;44.00;;;;;;4917729;29;20100;-73
2023/10/07 05:04:39;;;;;;;5.55;2.45;;;25.70;43.90;;;;;;4933740;29;20094;-72
2023/10/07 05:07:05;;;;;;;10.90;2.65;;;25.80;43.90;;;;;;4934627;29;20805;-73
2023/10/07 05:09:32;;;;;;;7.25;2.40;;;25.80;43.90;;;;;;4933060;29;20035;-73
2023/10/07 05:11:58;;;;;;;8.88;2.50;;;25.80;43.80;;;;;;4934367;29;20036;-73
2023/10/07 05:14:25;;;;;;;4.90;2.47;;;25.80;43.90;;;;;;4934193;29;20095;-72
2023/10/07 05:16:52;;;;;;;2.00;1.80;;;25.80;43.80;;;;;;4912120;29;20457;-73
2023/10/07 05:19:27;;;;;;;6.55;2.90;;;25.70;43.80;;;;;;4934620;29;20042;-73
2023/10/07 05:22:00;;;;;;;6.07;2.75;;;25.90;43.80;;;;;;4933582;29;20091;-74
2023/10/07 05:24:32;;;;;;;3.70;2.30;;;25.90;43.80;;;;;;4921617;29;20027;-75
2023/10/07 05:27:02;;;;;;;4.87;2.57;;;25.80;43.90;;;;;;4933772;29;20032;-74
2023/10/07 05:29:29;;;;;;;3.75;2.33;;;25.90;44.30;;;;;;4932857;29;20027;-75
2023/10/07 05:31:59;;;;;;;6.05;2.38;;;25.90;45.60;;;;;;4933329;29;20049;-75
2023/10/07 05:34:33;;;;;;;12.10;2.45;;;25.90;46.30;;;;;;4934518;29;20071;-74
2023/10/07 05:37:11;;;;;;;4.03;2.70;;;26.00;46.40;;;;;;4932335;29;20070;-73
2023/10/07 05:39:44;;;;;;;3.55;1.92;;;26.00;46.40;;;;;;4932851;29;20036;-74
2023/10/07 05:42:11;;;;;;;5.15;2.45;;;25.90;46.00;;;;;;4932564;29;20036;-73
2023/10/07 05:44:38;;;;;;;4.80;1.55;;;26.00;46.20;;;;;;4934958;29;20032;-73
2023/10/07 05:47:05;;;;;;;5.68;1.90;;;26.00;46.10;;;;;;4931938;29;20032;-75
2023/10/07 05:49:32;;;;;;;4.63;1.85;;;26.00;46.90;;;;;;4930386;29;20044;-72
2023/10/07 05:51:58;;;;;;;4.75;1.75;;;26.00;47.20;;;;;;4931921;29;20396;-72
2023/10/07 05:54:28;;;;;;;2.58;1.77;;;26.10;46.60;;;;;;4931619;29;20039;-75
2023/10/07 05:56:58;;;;;;;4.85;2.05;;;26.20;46.90;;;;;;4931077;29;20047;-74
2023/10/07 05:59:24;;;;;;;4.30;2.05;;;26.10;46.30;;;;;;4933336;29;20031;-75
2023/10/07 06:01:50;;;;;;;3.58;1.60;;;26.30;45.70;;;;;;4932726;29;20086;-71
2023/10/07 06:04:17;;;;;;;4.18;2.58;;;26.20;44.90;;;;;;4933607;29;20131;-75
2023/10/07 06:06:43;;;;;;;8.18;7.10;;;26.40;44.90;;;;;;4916426;29;20408;-74
2023/10/07 06:09:14;;;;;;;14.10;12.43;;;26.30;45.10;;;;;;4933047;29;20036;-73
2023/10/07 06:11:42;;;;;;;16.80;12.75;;;26.50;45.10;;;;;;4932822;29;20090;-75
2023/10/07 06:14:10;;;;;;;22.05;16.52;;;26.30;45.20;;;;;;4932423;29;20024;-75
2023/10/07 06:16:37;;;;;;;19.95;16.00;;;26.50;45.40;;;;;;4932459;29;20369;-75
2023/10/07 06:19:04;;;;;;;21.67;15.95;;;26.50;45.00;;;;;;4932643;29;20126;-75
2023/10/07 06:21:31;;;;;;;17.77;13.60;;;26.70;45.10;;;;;;4932541;29;20032;-76
2023/10/07 06:24:06;;;;;;;19.73;15.05;;;26.60;45.30;;;;;;4932477;29;20067;-77
2023/10/07 06:26:32;;;;;;;5.45;2.85;;;26.60;44.70;;;;;;4932535;29;20036;-75
2023/10/07 06:29:05;;;;;;;3.55;2.20;;;26.60;44.30;;;;;;4931054;29;20027;-75
2023/10/07 06:31:32;;;;;;;3.33;2.25;;;26.70;43.90;;;;;;4931535;29;20542;-75
2023/10/07 06:34:03;;;;;;;2.20;1.70;;;26.60;43.50;;;;;;4930819;29;20084;-75
2023/10/07 06:36:31;;;;;;;7.88;2.90;;;26.80;43.20;;;;;;4931980;29;20050;-76
2023/10/07 06:39:07;;;;;;;2.78;1.70;;;26.80;43.60;;;;;;4932249;29;20039;-75
2023/10/07 06:41:35;;;;;;;5.47;2.05;;;26.70;43.30;;;;;;4929331;29;20044;-76
2023/10/07 06:44:04;;;;;;;6.05;1.90;;;26.70;42.50;;;;;;4932471;29;20031;-74
2023/10/07 06:46:40;;;;;;;3.60;2.30;;;26.70;42.00;;;;;;4932893;29;20020;-75
2023/10/07 06:49:18;;;;;;;5.50;1.80;;;26.70;41.60;;;;;;4933331;29;20087;-74
2023/10/07 06:51:51;;;;;;;2.67;1.92;;;26.60;41.20;;;;;;4932945;29;20039;-76
2023/10/07 06:54:17;;;;;;;3.47;2.17;;;26.60;41.00;;;;;;4933459;29;20036;-74
2023/10/07 06:56:45;;;;;;;3.42;2.20;;;26.60;41.10;;;;;;4931625;29;20039;-75
2023/10/07 06:59:13;;;;;;;4.70;2.05;;;26.60;40.60;;;;;;4933298;29;20044;-76
2023/10/07 07:04:14;;;;;;;10.20;2.40;;;26.60;41.00;;;;;;4932778;29;20122;-74
2023/10/07 07:06:44;;;;;;;6.97;1.90;;;26.60;40.80;;;;;;4934850;29;20040;-74
2023/10/07 07:12:03;;;;;;;4.43;2.08;;;26.60;40.10;;;;;;4934676;29;20524;-74
2023/10/07 07:14:33;;;;;;;5.57;2.08;;;26.70;40.00;;;;;;4917919;29;20040;-75
2023/10/07 07:22:53;;;;;;;5.28;1.83;;;26.50;39.90;;;;;;4912192;29;20043;-74
2023/10/07 07:25:29;;;;;;;3.75;1.83;;;26.50;39.80;;;;;;4829919;29;20530;-75
2023/10/07 07:27:58;;;;;;;3.90;1.90;;;26.50;39.80;;;;;;4829319;29;20137;-75
2023/10/07 07:30:30;;;;;;;5.78;2.30;;;26.60;39.70;;;;;;4826439;29;20141;-74
2023/10/07 07:32:59;;;;;;;2.35;1.83;;;26.50;39.70;;;;;;4821991;29;20126;-75
2023/10/07 07:35:39;;;;;;;2.97;1.92;;;26.50;39.70;;;;;;4836320;29;20046;-73
2023/10/07 07:38:17;;;;;;;3.47;1.95;;;26.50;39.70;;;;;;4838647;29;20054;-78
2023/10/07 07:40:45;;;;;;;4.38;2.72;;;26.50;39.70;;;;;;4832111;29;20041;-73
2023/10/07 07:43:13;;;;;;;2.80;1.63;;;26.50;39.80;;;;;;4833278;29;20511;-73
2023/10/07 07:45:40;;;;;;;3.92;2.33;;;26.50;39.90;;;;;;4839169;29;20053;-74
2023/10/07 07:48:07;;;;;;;4.80;2.05;;;26.50;39.90;;;;;;4840084;29;20056;-73
2023/10/07 07:50:35;;;;;;;4.78;2.35;;;26.40;40.00;;;;;;4836823;29;20165;-73
2023/10/07 07:53:12;;;;;;;4.18;2.30;;;26.40;40.00;;;;;;4826223;29;20054;-74
2023/10/07 07:55:43;;;;;;;4.38;2.22;;;26.50;40.10;;;;;;4825585;29;20274;-73
2023/10/07 07:58:10;;;;;;;2.60;1.90;;;26.50;40.00;;;;;;4876024;29;20044;-75
2023/10/07 08:00:44;;;;;;;8.88;2.22;;;26.40;40.10;;;;;;4872064;29;20040;-73
2023/10/07 08:03:12;;;;;;;4.68;1.77;;;26.50;40.20;;;;;;4916451;29;20578;-73
2023/10/07 08:05:41;;;;;;;3.33;2.20;;;26.30;40.30;;;;;;4935007;29;20137;-72
2023/10/07 08:08:19;;;;;;;3.25;1.95;;;26.40;40.40;;;;;;4933446;29;20518;-75
2023/10/07 08:10:48;;;;;;;3.40;2.00;;;26.40;40.60;;;;;;4934433;29;20024;-75
2023/10/07 08:13:20;;;;;;;9.60;2.30;;;26.30;40.80;;;;;;4935255;29;20039;-76
2023/10/07 08:15:48;;;;;;;5.20;1.87;;;26.30;41.00;;;;;;4933636;29;20041;-74
2023/10/07 08:18:14;;;;;;;3.17;1.80;;;26.40;41.10;;;;;;4933786;29;20039;-74
2023/10/07 08:20:45;;;;;;;3.95;1.73;;;26.30;41.30;;;;;;4934365;29;20046;-75
2023/10/07 08:23:28;;;;;;;3.05;1.85;;;26.30;41.50;;;;;;4935314;29;20083;-74
2023/10/07 08:26:10;;;;;;;5.93;2.00;;;26.40;41.60;;;;;;4935002;29;20046;-75
2023/10/07 08:31:20;;;;;;;3.83;2.22;;;26.50;41.80;;;;;;4934613;29;20102;-75
2023/10/07 08:34:09;;;;;;;3.75;2.20;;;26.30;41.90;;;;;;4934471;29;20058;-75
2023/10/07 08:36:43;;;;;;;2.72;1.80;;;26.40;42.00;;;;;;4935033;29;20566;-74
2023/10/07 08:39:10;;;;;;;3.58;2.15;;;26.40;42.10;;;;;;4934163;29;20047;-76
2023/10/07 08:41:40;;;;;;;3.72;2.22;;;26.30;42.10;;;;;;4934117;29;20048;-75
2023/10/07 08:44:13;;;;;;;4.68;1.90;;;26.40;42.20;;;;;;4933337;29;20043;-75
2023/10/07 08:46:40;;;;;;;4.03;2.10;;;26.40;42.30;;;;;;4934820;29;20039;-75
2023/10/07 08:49:24;;;;;;;4.88;1.63;;;26.30;42.30;;;;;;4934006;29;20036;-75
2023/10/07 08:51:53;;;;;;;3.00;1.92;;;26.30;42.40;;;;;;4933175;29;20043;-75
2023/10/07 08:54:25;;;;;;;2.88;1.48;;;26.40;42.40;;;;;;4932783;29;20024;-75
2023/10/07 08:56:57;;;;;;;;;;;26.30;42.40;;;;;;4934679;29;20540;-75
2023/10/07 08:59:33;;;;;;;2.67;2.25;;;26.20;42.50;;;;;;4932746;29;19968;-75
2023/10/07 09:02:00;;;;;;;3.20;2.25;;;26.10;42.50;;;;;;4931574;29;20062;-75
2023/10/07 09:04:33;;;;;;;3.05;1.98;;;26.20;42.60;;;;;;4933896;29;20502;-75
2023/10/07 09:07:00;;;;;;;;;;;26.20;42.70;;;;;;4934612;29;20059;-75
2023/10/07 09:09:43;;;;;;;2.35;1.70;;;26.10;42.70;;;;;;4934391;29;19910;-75
2023/10/07 09:12:18;;;;;;;4.88;2.00;;;26.10;42.70;;;;;;4933472;29;20098;-75
2023/10/07 09:14:52;;;;;;;2.40;2.03;;;26.20;42.80;;;;;;4915852;29;20047;-75
2023/10/07 09:17:22;;;;;;;3.40;1.63;;;26.10;42.90;;;;;;4933751;29;20035;-75
2023/10/07 09:19:58;;;;;;;3.22;1.73;;;26.10;43.00;;;;;;4933028;29;20031;-75
2023/10/07 09:22:32;;;;;;;3.15;2.05;;;26.20;43.10;;;;;;4934187;29;20063;-75
2023/10/07 09:25:17;;;;;;;3.03;1.90;;;26.10;43.20;;;;;;4932340;29;20039;-74
2023/10/07 09:28:01;;;;;;;2.80;1.88;;;26.20;43.20;;;;;;4911809;29;20044;-74
2023/10/07 09:33:15;;;;;;;2.55;1.73;;;26.20;43.50;;;;;;4912571;29;20068;-77
2023/10/07 09:35:43;;;;;;;6.75;2.10;;;26.10;44.00;;;;;;4912318;29;20472;-76
2023/10/07 09:38:33;;;;;;;4.97;1.80;;;26.20;44.20;;;;;;4913045;29;20092;-76
2023/10/07 09:43:51;;;;;;;3.67;2.05;;;26.10;44.20;;;;;;4910283;29;20052;-76
2023/10/07 09:46:29;;;;;;;4.68;2.60;;;26.20;44.20;;;;;;4900124;29;20035;-75
2023/10/07 09:48:59;;;;;;;3.20;1.92;;;26.20;46.50;;;;;;4896259;29;20048;-76
2023/10/07 09:51:28;;;;;;;13.60;3.25;;;26.30;47.60;;;;;;4912340;29;20048;-74
2023/10/07 09:54:47;;;;;;;5.57;2.20;;;26.60;49.40;;;;;;4912512;29;20481;-74
2023/10/07 09:57:44;;;;;;;5.65;2.53;;;26.70;52.10;;;;;;4912085;29;20142;-75
2023/10/07 10:03:20;;;;;;;4.90;2.88;;;27.00;53.10;;;;;;4935369;29;20403;-74
2023/10/07 10:06:07;;;;;;;4.13;2.10;;;27.00;51.00;;;;;;4932218;29;20032;-75
2023/10/07 10:08:52;;;;;;;3.25;2.00;;;26.90;47.00;;;;;;4933513;29;20235;-77
2023/10/07 10:11:43;;;;;;;2.40;1.33;;;26.90;45.90;;;;;;4932821;29;20035;-75
2023/10/07 10:16:53;;;;;;;4.18;1.33;;;26.90;44.90;;;;;;4933051;29;20754;-75
2023/10/07 10:19:44;;;;;;;3.40;2.00;;;26.70;44.50;;;;;;4933489;29;20051;-76
2023/10/07 10:22:12;;;;;;;4.43;2.45;;;26.70;44.50;;;;;;4933239;29;20047;-77
2023/10/07 10:24:43;;;;;;;3.67;1.50;;;26.70;44.00;;;;;;4932611;29;20043;-75
2023/10/07 10:27:11;;;;;;;4.80;1.90;;;26.60;43.60;;;;;;4931435;29;20075;-75
2023/10/07 10:32:54;;;;;;;3.90;1.90;;;27.00;47.60;;;;;;4892964;29;20566;-74
2023/10/07 10:35:25;;;;;;;5.60;2.70;;;27.30;45.80;;;;;;4876661;29;20040;-76
2023/10/07 10:37:57;;;;;;;4.82;2.38;;;27.20;44.20;;;;;;4892474;29;20155;-74
2023/10/07 10:40:31;;;;;;;3.55;1.60;;;27.00;43.20;;;;;;4892433;29;20136;-77
2023/10/07 10:42:57;;;;;;;1.20;1.10;;;27.10;42.40;;;;;;4880472;29;20505;-76
2023/10/07 10:45:26;;;;;;;2.60;1.45;;;26.80;41.20;;;;;;4902526;29;20028;-77
2023/10/07 10:47:58;;;;;;;1.13;1.00;;;26.90;41.20;;;;;;4895396;29;20072;-75
2023/10/07 10:50:24;;;;;;;4.40;1.55;;;27.00;41.50;;;;;;4880511;29;20481;-76
2023/10/07 10:52:54;;;;;;;1.40;1.30;;;27.00;41.40;;;;;;4880988;29;20111;-75
2023/10/07 10:55:23;;;;;;;3.83;1.85;;;26.90;41.10;;;;;;4895237;29;20128;-74
2023/10/07 10:57:50;;;;;;;2.78;1.90;;;26.90;41.10;;;;;;4895869;29;20532;-76
2023/10/07 11:00:21;;;;;;;3.08;1.55;;;26.80;41.20;;;;;;4895667;29;20033;-74
2023/10/07 11:02:49;;;;;;;0.30;0.30;;;26.80;41.20;;;;;;4895703;29;20170;-75
2023/10/07 11:05:15;;;;;;;0.65;0.65;;;26.70;41.20;;;;;;4895957;29;20048;-75
2023/10/07 11:07:50;;;;;;;1.70;1.27;;;26.80;40.90;;;;;;4896147;29;20040;-76
2023/10/07 11:10:24;;;;;;;3.83;1.85;;;26.80;40.70;;;;;;4936240;29;20043;-76
2023/10/07 11:12:56;;;;;;;4.55;1.90;;;26.70;40.30;;;;;;4936798;29;20532;-76
2023/10/07 11:15:26;;;;;;;4.77;1.30;;;27.00;40.90;;;;;;4921032;29;20038;-75
2023/10/07 11:17:56;;;;;;;4.60;1.90;;;26.70;40.50;;;;;;4936245;29;20051;-75
2023/10/07 11:20:24;;;;;;;2.13;1.50;;;26.80;40.50;;;;;;4936288;29;20111;-75
2023/10/07 11:22:53;;;;;;;3.22;1.10;;;26.70;40.60;;;;;;4936583;29;20028;-74
2023/10/07 11:25:22;;;;;;;4.05;2.15;;;26.80;40.60;;;;;;4934453;29;20032;-75
2023/10/07 11:27:49;;;;;;;2.60;1.73;;;26.70;40.70;;;;;;4935887;29;20445;-73
2023/10/07 11:30:15;;;;;;;2.65;1.40;;;26.90;40.70;;;;;;4934184;29;20047;-74
2023/10/07 11:32:43;;;;;;;0.70;0.70;;;26.70;40.70;;;;;;4935206;29;20056;-72
2023/10/07 11:35:16;;;;;;;0.88;0.82;;;26.90;40.50;;;;;;4934310;29;20032;-71
2023/10/07 11:37:57;;;;;;;2.13;1.17;;;26.90;40.40;;;;;;4934274;29;20098;-72
2023/10/07 11:40:32;;;;;;;3.10;1.45;;;26.70;40.30;;;;;;4935727;29;20044;-72
2023/10/07 11:43:04;;;;;;;3.65;1.45;;;26.80;40.20;;;;;;4935346;29;20043;-74
2023/10/07 11:45:35;;;;;;;3.73;2.00;;;26.80;40.20;;;;;;4933781;29;20122;-74
2023/10/07 11:48:06;;;;;;;3.58;1.58;;;26.80;40.20;;;;;;4935455;29;20067;-74
2023/10/07 11:50:35;;;;;;;3.53;1.33;;;26.80;40.10;;;;;;4934006;29;20039;-74
2023/10/07 11:53:04;;;;;;;3.45;1.38;;;26.80;40.10;;;;;;4933781;29;20028;-75
2023/10/07 11:55:31;;;;;;;2.78;1.77;;;26.80;40.00;;;;;;4934944;29;20040;-73
2023/10/07 11:58:02;;;;;;;11.55;2.13;;;26.80;40.00;;;;;;4935015;29;20027;-73
2023/10/07 12:00:34;;;;;;;7.65;2.13;;;26.70;39.90;;;;;;4926057;29;20046;-75
2023/10/07 12:03:04;;;;;;;0.70;0.70;;;26.70;40.10;;;;;;4934860;29;20039;-76
2023/10/07 12:05:39;;;;;;;0.60;0.57;;;26.70;40.20;;;;;;4935250;29;20059;-76
2023/10/07 12:08:05;;;;;;;3.08;1.90;;;26.80;40.20;;;;;;4935338;29;20055;-78
2023/10/07 12:10:38;;;;;;;6.00;2.28;;;26.70;40.50;;;;;;4934568;29;20044;-74
2023/10/07 12:13:11;;;;;;;2.78;1.30;;;26.70;40.60;;;;;;4934463;29;20039;-72
2023/10/07 12:15:42;;;;;;;2.45;1.70;;;26.60;40.50;;;;;;4934802;29;20149;-75
2023/10/07 12:18:16;;;;;;;3.80;2.08;;;26.80;40.50;;;;;;4935148;29;20040;-75
2023/10/07 12:20:42;;;;;;;2.70;1.60;;;26.70;40.40;;;;;;4935434;29;20043;-77
2023/10/07 12:23:09;;;;;;;3.75;2.20;;;26.70;40.40;;;;;;4934995;29;20421;-76
2023/10/07 12:25:35;;;;;;;6.05;1.75;;;26.80;40.50;;;;;;4934250;29;20527;-75
2023/10/07 12:28:05;;;;;;;3.80;1.60;;;26.70;40.50;;;;;;4935346;29;20039;-76
2023/10/07 12:30:32;;;;;;;4.13;1.85;;;26.70;40.80;;;;;;4932527;29;20526;-72
2023/10/07 12:32:59;;;;;;;3.15;2.08;;;26.70;41.00;;;;;;4934425;29;20047;-77
2023/10/07 12:35:25;;;;;;;3.50;1.92;;;26.60;41.20;;;;;;4934466;29;20048;-75
2023/10/07 12:37:52;;;;;;;2.15;1.48;;;26.70;41.30;;;;;;4933815;29;20492;-73
2023/10/07 12:40:18;;;;;;;3.25;1.75;;;26.70;41.30;;;;;;4932705;29;20027;-75
2023/10/07 12:42:46;;;;;;;2.90;1.80;;;26.70;41.30;;;;;;4933794;29;20035;-74
2023/10/07 12:45:12;;;;;;;4.10;2.20;;;26.70;41.30;;;;;;4934050;29;20055;-74
2023/10/07 12:47:40;;;;;;;1.95;1.50;;;26.70;41.30;;;;;;4933892;29;20032;-73
2023/10/07 12:52:49;;;;;;;2.90;1.50;;;26.80;41.60;;;;;;4934805;29;20472;-72
2023/10/07 12:55:17;;;;;;;3.67;2.53;;;26.60;41.90;;;;;;4933978;29;20075;-76
2023/10/07 12:57:44;;;;;;;2.38;1.48;;;26.60;41.80;;;;;;4934039;29;20769;-72
2023/10/07 13:00:28;;;;;;;1.73;1.63;;;26.70;41.80;;;;;;4933828;29;20024;-68
2023/10/07 13:02:54;;;;;;;2.33;1.40;;;26.70;41.90;;;;;;4933645;29;20064;-70
2023/10/07 13:05:23;;;;;;;4.10;1.95;;;26.60;42.00;;;;;;4932710;29;20031;-74
2023/10/07 13:07:51;;;;;;;1.13;0.98;;;26.70;41.90;;;;;;4932740;29;20035;-72
2023/10/07 13:10:17;;;;;;;3.95;1.92;;;26.60;41.80;;;;;;4933683;29;20027;-71
2023/10/07 13:12:44;;;;;;;2.92;2.03;;;26.60;41.70;;;;;;4934125;29;20131;-72
2023/10/07 13:15:18;;;;;;;1.95;1.13;;;26.60;41.60;;;;;;4933731;29;20046;-71
2023/10/07 13:17:45;;;;;;;5.18;1.63;;;26.60;41.50;;;;;;4934229;29;20047;-71
2023/10/07 13:20:13;;;;;;;3.30;1.70;;;26.60;41.30;;;;;;4933839;29;20055;-71
2023/10/07 13:22:39;;;;;;;3.03;1.48;;;26.70;41.10;;;;;;4924776;29;20036;-71
2023/10/07 13:25:09;;;;;;;1.25;1.00;;;26.70;41.10;;;;;;4927702;29;20036;-71
2023/10/07 13:27:39;;;;;;;2.58;1.83;;;26.60;41.10;;;;;;4932859;29;20062;-71
2023/10/07 13:30:12;;;;;;;4.78;1.75;;;26.70;41.10;;;;;;4932317;29;20109;-70
2023/10/07 13:32:40;;;;;;;3.33;1.90;;;26.70;41.00;;;;;;4930538;29;20424;-70
2023/10/07 13:35:09;;;;;;;2.50;1.67;;;26.70;41.00;;;;;;4933011;29;20051;-72
2023/10/07 13:37:37;;;;;;;2.67;1.85;;;26.60;41.10;;;;;;4934156;29;20043;-73
2023/10/07 13:40:07;;;;;;;1.63;0.73;;;26.60;41.30;;;;;;4922403;29;20148;-71
2023/10/07 13:42:36;;;;;;;1.40;0.70;;;26.50;41.30;;;;;;4930615;29;20092;-71
2023/10/07 13:45:08;;;;;;;2.40;1.48;;;26.70;41.20;;;;;;4942970;29;20039;-72
2023/10/07 13:47:35;;;;;;;2.33;1.30;;;26.40;41.20;;;;;;4914838;29;20460;-72
2023/10/07 13:50:14;;;;;;;2.20;1.70;;;26.40;41.00;;;;;;4932895;29;20456;-72
2023/10/07 13:52:51;;;;;;;3.92;1.63;;;26.50;41.00;;;;;;4931934;29;20099;-72
2023/10/07 13:58:05;;;;;;;4.20;2.08;;;26.50;40.80;;;;;;4858946;29;20075;-72
2023/10/07 14:03:08;;;;;;;3.25;1.63;;;26.50;40.90;;;;;;4877325;29;20411;-72
2023/10/07 14:05:41;;;;;;;5.07;1.98;;;26.60;40.80;;;;;;4859566;29;20512;-72
2023/10/07 14:08:19;;;;;;;2.30;1.23;;;26.50;40.80;;;;;;4870627;29;20137;-72
2023/10/07 14:10:55;;;;;;;3.13;1.85;;;26.40;40.90;;;;;;4874092;29;20133;-72
2023/10/07 14:13:23;;;;;;;3.00;1.73;;;26.50;41.00;;;;;;4874189;29;20044;-74
2023/10/07 14:15:50;;;;;;;2.33;1.60;;;26.50;41.20;;;;;;4874882;29;20051;-72